createdAt,value
2023-05-05T00:01:56.144Z,17.77
2023-05-05T00:07:00.844Z,16.40
2023-05-05T00:12:04.540Z,17.68
2023-05-05T00:17:10.119Z,17.68
2023-05-05T00:22:14.613Z,17.50
2023-05-05T00:27:18.403Z,17.09
2023-05-05T00:32:23.930Z,17.64
2023-05-05T00:37:27.505Z,17.52
2023-05-05T00:42:40.891Z,17.43
2023-05-05T00:47:49.342Z,17.61
2023-05-05T00:52:55.376Z,16.18
2023-05-05T00:57:59.472Z,17.38
2023-05-05T01:03:29.404Z,17.64
2023-05-05T01:08:45.302Z,16.39
2023-05-05T01:13:58.418Z,16.50
2023-05-05T01:19:16.166Z,17.41
2023-05-05T01:24:50.195Z,17.42
2023-05-05T01:30:09.916Z,17.04
2023-05-05T01:35:20.720Z,17.21
2023-05-05T01:40:34.808Z,16.79
2023-05-05T01:45:42.175Z,16.52
2023-05-05T01:50:50.007Z,16.51
2023-05-05T01:55:55.691Z,16.97
2023-05-05T02:01:00.449Z,16.97
2023-05-05T02:06:08.128Z,16.63
2023-05-05T02:11:12.825Z,16.12
2023-05-05T02:16:18.090Z,16.50
2023-05-05T02:21:23.331Z,16.32
2023-05-05T02:26:29.103Z,14.04
2023-05-05T02:31:37.703Z,14.06
2023-05-05T02:36:45.965Z,16.40
2023-05-05T02:41:52.457Z,16.11
2023-05-05T02:47:05.017Z,16.55
2023-05-05T02:52:12.549Z,14.24
2023-05-05T02:57:21.446Z,13.65
2023-05-05T03:02:44.904Z,16.64
2023-05-05T03:07:56.791Z,14.77
2023-05-05T03:13:03.836Z,16.44
2023-05-05T03:18:17.722Z,15.94
2023-05-05T03:23:27.868Z,15.84
2023-05-05T03:28:35.886Z,16.39
2023-05-05T03:33:46.722Z,16.21
2023-05-05T03:38:51.954Z,16.42
2023-05-05T03:43:56.913Z,15.11
2023-05-05T03:49:01.260Z,14.61
2023-05-05T03:54:06.914Z,15.57
2023-05-05T03:59:11.030Z,15.66
2023-05-05T04:04:16.146Z,16.15
2023-05-05T04:09:21.352Z,16.24
2023-05-05T04:14:25.061Z,16.18
2023-05-05T04:19:29.392Z,16.18
2023-05-05T04:24:34.488Z,15.83
2023-05-05T04:29:38.218Z,14.00
2023-05-05T04:34:41.995Z,15.72
2023-05-05T04:39:47.123Z,15.98
2023-05-05T04:44:51.110Z,15.52
2023-05-05T04:49:56.034Z,16.31
2023-05-05T04:55:01.547Z,15.89
2023-05-05T05:00:06.765Z,15.79
2023-05-05T05:05:11.284Z,15.57
2023-05-05T05:10:17.353Z,15.39
2023-05-05T05:15:20.953Z,16.52
2023-05-05T05:20:24.814Z,15.92
2023-05-05T05:25:30.455Z,16.48
2023-05-05T05:30:34.375Z,16.53
2023-05-05T05:35:40.596Z,16.21
2023-05-05T05:40:46.414Z,15.48
2023-05-05T05:45:52.016Z,16.95
2023-05-05T05:50:57.090Z,17.16
2023-05-05T05:56:03.401Z,17.48
2023-05-05T06:01:07.441Z,16.39
2023-05-05T06:06:13.297Z,17.75
2023-05-05T06:11:18.440Z,17.89
2023-05-05T06:16:22.681Z,18.00
2023-05-05T06:21:27.881Z,17.53
2023-05-05T06:26:33.333Z,17.98
2023-05-05T06:31:37.333Z,16.53
2023-05-05T06:36:41.252Z,18.16
2023-05-05T06:41:46.444Z,17.97
2023-05-05T06:46:51.342Z,17.94
2023-05-05T06:51:55.041Z,19.23
2023-05-05T06:57:00.007Z,18.34
2023-05-05T07:02:04.123Z,19.01
2023-05-05T07:07:07.846Z,19.27
2023-05-05T07:12:12.798Z,19.01
2023-05-05T07:17:16.570Z,19.82
2023-05-05T07:22:22.222Z,19.65
2023-05-05T07:27:29.056Z,19.65
2023-05-05T07:32:32.729Z,20.13
2023-05-05T07:37:36.874Z,18.53
2023-05-05T07:42:42.354Z,19.82
2023-05-05T07:47:46.607Z,19.18
2023-05-05T07:52:56.364Z,18.96
2023-05-05T07:58:12.201Z,20.37
2023-05-05T08:03:15.978Z,20.26
2023-05-05T08:08:19.845Z,20.57
2023-05-05T08:13:24.990Z,20.68
2023-05-05T08:18:28.532Z,20.61
2023-05-05T08:23:32.373Z,20.15
2023-05-05T08:28:37.682Z,20.54
2023-05-05T08:33:41.422Z,20.53
2023-05-05T08:38:45.171Z,20.68
2023-05-05T08:43:50.733Z,20.96
2023-05-05T08:48:56.371Z,20.67
2023-05-05T08:54:03.917Z,20.78
2023-05-05T08:59:11.478Z,19.51
2023-05-05T09:04:15.574Z,19.40
2023-05-05T09:09:20.809Z,20.76
2023-05-05T09:14:26.059Z,21.11
2023-05-05T09:19:29.855Z,20.85
2023-05-05T09:24:33.691Z,21.13
2023-05-05T09:29:38.965Z,20.96
2023-05-05T09:34:42.573Z,21.37
2023-05-05T09:39:55.023Z,21.27
2023-05-05T09:45:00.381Z,21.33
2023-05-05T09:50:06.164Z,21.73
2023-05-05T09:55:18.907Z,21.73
2023-05-05T10:00:38.494Z,21.89
2023-05-05T10:05:50.591Z,21.96
2023-05-05T10:10:56.165Z,22.04
2023-05-05T10:16:04.441Z,21.89
2023-05-05T10:21:10.187Z,22.06
2023-05-05T10:26:15.650Z,22.10
2023-05-05T10:31:29.752Z,22.16
2023-05-05T10:36:34.560Z,21.99
2023-05-05T10:41:38.829Z,22.12
2023-05-05T10:46:45.029Z,22.18
2023-05-05T10:51:54.754Z,22.14
2023-05-05T10:57:02.622Z,21.72
2023-05-05T11:02:21.452Z,21.62
2023-05-05T11:07:27.049Z,21.99
2023-05-05T11:12:31.600Z,21.49
2023-05-05T11:17:46.945Z,21.12
2023-05-05T11:23:25.321Z,22.32
2023-05-05T11:28:31.171Z,22.15
2023-05-05T11:33:37.685Z,22.22
2023-05-05T11:39:08.759Z,22.45
2023-05-05T11:44:13.785Z,22.08
2023-05-05T11:49:29.412Z,22.72
2023-05-05T11:54:33.721Z,22.22
2023-05-05T11:59:38.486Z,22.98
2023-05-05T12:04:43.870Z,23.40
2023-05-05T12:09:49.293Z,23.76
2023-05-05T12:14:54.406Z,23.99
2023-05-05T12:19:59.342Z,24.22
2023-05-05T12:25:04.784Z,24.39
2023-05-05T12:30:17.122Z,24.17
2023-05-05T12:35:22.520Z,24.17
2023-05-05T12:40:49.117Z,24.55
2023-05-05T12:46:00.706Z,25.05
2023-05-05T12:51:32.201Z,24.19
2023-05-05T12:56:40.606Z,24.93
2023-05-05T13:01:50.960Z,25.41
2023-05-05T13:12:25.171Z,25.29
2023-05-05T13:17:29.138Z,26.10
2023-05-05T13:22:32.811Z,25.42
2023-05-05T13:27:38.407Z,26.57
2023-05-05T13:32:42.304Z,26.70
2023-05-05T13:37:47.174Z,26.96
2023-05-05T13:42:52.206Z,27.26
2023-05-05T13:47:56.190Z,27.08
2023-05-05T13:52:59.887Z,26.91
2023-05-05T13:58:04.846Z,26.64
2023-05-05T14:03:08.511Z,26.16
2023-05-05T14:08:12.083Z,26.36
2023-05-05T14:13:20.026Z,26.25
2023-05-05T14:18:23.662Z,25.97
2023-05-05T14:23:27.311Z,25.72
2023-05-05T14:28:32.396Z,25.63
2023-05-05T14:33:36.009Z,25.28
2023-05-05T14:38:39.818Z,25.61
2023-05-05T14:43:44.826Z,25.45
2023-05-05T14:48:48.430Z,25.56
2023-05-05T14:53:51.962Z,25.34
2023-05-05T14:58:56.972Z,25.57
2023-05-05T15:04:00.572Z,25.10
2023-05-05T15:09:04.239Z,25.36
2023-05-05T15:14:09.479Z,25.56
2023-05-05T15:19:13.154Z,25.49
2023-05-05T15:24:16.951Z,25.42
2023-05-05T15:29:22.326Z,24.75
2023-05-05T15:34:26.266Z,24.63
2023-05-05T15:39:29.796Z,22.62
2023-05-05T15:44:34.733Z,24.80
2023-05-05T15:49:38.399Z,24.69
2023-05-05T15:54:41.983Z,24.12
2023-05-05T15:59:46.954Z,24.53
2023-05-05T16:04:50.534Z,24.15
2023-05-05T16:09:54.223Z,24.18
2023-05-05T16:14:59.118Z,23.13
2023-05-05T16:20:02.867Z,24.18
2023-05-05T16:25:07.737Z,24.06
2023-05-05T16:30:15.457Z,22.76
2023-05-05T16:35:24.612Z,22.61
2023-05-05T16:40:28.081Z,21.82
2023-05-05T16:45:37.915Z,20.97
2023-05-05T16:50:43.825Z,19.57
2023-05-05T16:55:51.224Z,19.08
2023-05-05T17:01:02.889Z,16.78
2023-05-05T17:06:11.835Z,18.25
2023-05-05T17:11:29.600Z,18.38
2023-05-05T17:16:36.473Z,18.30
2023-05-05T17:21:55.932Z,18.07
2023-05-05T17:27:18.598Z,17.72
2023-05-05T17:32:28.224Z,18.75
2023-05-05T17:37:32.571Z,18.53
2023-05-05T17:42:39.880Z,17.81
2023-05-05T17:47:48.829Z,19.24
2023-05-05T17:52:52.547Z,18.01
2023-05-05T17:57:59.123Z,17.92
2023-05-05T18:03:04.321Z,18.91
2023-05-05T18:08:08.090Z,17.07
2023-05-05T18:13:11.931Z,17.27
2023-05-05T18:18:17.031Z,18.07
2023-05-05T18:23:20.807Z,16.61
2023-05-05T18:28:24.551Z,18.12
2023-05-05T18:33:29.865Z,17.33
2023-05-05T18:38:33.573Z,18.24
2023-05-05T18:43:37.271Z,16.63
2023-05-05T18:48:42.242Z,17.43
2023-05-05T18:53:46.338Z,17.90
2023-05-05T18:58:50.134Z,18.16
2023-05-05T19:03:55.216Z,15.96
2023-05-05T19:08:59.489Z,18.23
2023-05-05T19:14:03.137Z,18.23
2023-05-05T19:19:08.204Z,18.02
2023-05-05T19:24:11.722Z,17.69
2023-05-05T19:29:16.268Z,18.29
2023-05-05T19:34:21.730Z,17.80
2023-05-05T19:39:25.445Z,17.51
2023-05-05T19:44:29.184Z,18.11
2023-05-05T19:49:34.061Z,18.11
2023-05-05T19:54:37.734Z,17.88
2023-05-05T19:59:42.058Z,17.81
2023-05-05T20:04:46.999Z,16.78
2023-05-05T20:09:50.638Z,17.51
2023-05-05T20:14:54.191Z,17.54
2023-05-05T20:19:59.241Z,17.54
2023-05-05T20:25:02.899Z,17.46
2023-05-05T20:30:08.569Z,17.76
2023-05-05T20:35:13.899Z,17.60
2023-05-05T20:40:17.767Z,17.88
2023-05-05T20:45:21.370Z,17.80
2023-05-05T20:50:26.343Z,17.16
2023-05-05T20:55:30.056Z,18.03
2023-05-05T21:00:33.961Z,17.64
2023-05-05T21:05:40.194Z,17.16
2023-05-05T21:10:43.870Z,17.01
2023-05-05T21:15:47.494Z,17.97
2023-05-05T21:21:27.644Z,17.78
2023-05-05T21:27:41.423Z,18.05
2023-05-05T21:33:53.231Z,16.78
2023-05-05T21:44:47.947Z,17.84
2023-05-05T21:50:13.374Z,15.18
2023-05-05T21:55:26.469Z,16.19
2023-05-05T22:00:31.282Z,17.15
2023-05-05T22:05:35.104Z,17.74
2023-05-05T22:10:42.150Z,15.53
2023-05-05T22:15:47.430Z,17.01
2023-05-05T22:20:51.475Z,17.70
2023-05-05T22:25:57.015Z,17.57
2023-05-05T22:31:00.783Z,16.92
2023-05-05T22:36:04.706Z,17.31
2023-05-05T22:41:09.720Z,15.96
2023-05-05T22:46:13.316Z,17.35
2023-05-05T22:51:16.952Z,17.05
2023-05-05T22:56:21.961Z,16.01
2023-05-05T23:01:27.929Z,17.29
2023-05-05T23:06:32.230Z,17.28
2023-05-05T23:11:37.354Z,17.65
2023-05-05T23:16:41.049Z,17.26
2023-05-05T23:21:52.808Z,16.98
2023-05-05T23:27:01.912Z,17.66
2023-05-05T23:32:05.799Z,17.31
2023-05-05T23:37:09.258Z,17.37
2023-05-05T23:42:14.215Z,16.88
2023-05-05T23:47:17.678Z,16.49
2023-05-05T23:52:21.846Z,17.21
2023-05-05T23:57:26.826Z,17.18
